createdAt,value
2022-12-03T00:00:05.048Z,13.20
2022-12-03T00:01:03.025Z,13.20
2022-12-03T00:02:01.999Z,13.20
2022-12-03T00:03:02.172Z,13.00
2022-12-03T00:04:02.165Z,12.80
2022-12-03T00:05:01.937Z,13.40
2022-12-03T00:06:01.919Z,12.80
2022-12-03T00:07:01.904Z,11.50
2022-12-03T00:08:01.927Z,13.30
2022-12-03T00:09:01.858Z,12.10
2022-12-03T00:10:01.834Z,12.20
2022-12-03T00:11:02.820Z,11.10
2022-12-03T00:12:01.798Z,12.70
2022-12-03T00:13:01.807Z,13.00
2022-12-03T00:14:01.758Z,11.50
2022-12-03T00:15:01.739Z,12.00
2022-12-03T00:16:01.762Z,13.30
2022-12-03T00:17:01.698Z,12.30
2022-12-03T00:18:01.704Z,12.20
2022-12-03T00:19:01.657Z,12.20
2022-12-03T00:20:01.641Z,12.60
2022-12-03T00:21:01.621Z,13.20
2022-12-03T00:22:01.598Z,12.70
2022-12-03T00:23:01.606Z,13.40
2022-12-03T00:24:01.559Z,13.00
2022-12-03T00:25:01.540Z,12.70
2022-12-03T00:26:01.523Z,12.50
2022-12-03T00:27:01.505Z,13.20
2022-12-03T00:28:01.504Z,13.30
2022-12-03T00:29:01.459Z,13.30
2022-12-03T00:30:02.441Z,12.90
2022-12-03T00:31:01.482Z,13.20
2022-12-03T00:32:01.404Z,12.20
2022-12-03T00:33:01.407Z,13.40
2022-12-03T00:34:01.361Z,12.90
2022-12-03T00:35:01.339Z,14.30
2022-12-03T00:36:01.343Z,12.90
2022-12-03T00:37:01.301Z,12.60
2022-12-03T00:38:01.281Z,12.80
2022-12-03T00:39:01.258Z,12.70
2022-12-03T00:40:01.239Z,12.50
2022-12-03T00:41:01.245Z,11.80
2022-12-03T00:42:01.199Z,13.20
2022-12-03T00:43:01.179Z,13.70
2022-12-03T00:44:01.190Z,13.10
2022-12-03T00:45:01.138Z,12.70
2022-12-03T00:46:01.194Z,13.90
2022-12-03T00:47:01.175Z,12.90
2022-12-03T00:48:01.080Z,13.00
2022-12-03T00:49:01.083Z,13.30
2022-12-03T00:50:01.040Z,13.10
2022-12-03T00:51:01.021Z,13.00
2022-12-03T00:52:00.997Z,13.20
2022-12-03T00:53:00.982Z,13.30
2022-12-03T00:54:00.989Z,13.10
2022-12-03T00:55:00.937Z,13.00
2022-12-03T00:56:00.915Z,12.70
2022-12-03T00:57:00.904Z,12.50
2022-12-03T00:58:00.876Z,13.30
2022-12-03T00:59:00.889Z,13.20
2022-12-03T01:00:00.834Z,12.80
2022-12-03T01:01:00.842Z,13.00
2022-12-03T01:02:00.891Z,13.30
2022-12-03T01:03:00.773Z,12.70
2022-12-03T01:04:00.780Z,13.30
2022-12-03T01:05:00.813Z,12.50
2022-12-03T01:06:00.717Z,13.00
2022-12-03T01:07:00.697Z,12.70
2022-12-03T01:08:00.732Z,11.70
2022-12-03T01:09:00.678Z,12.60
2022-12-03T01:10:00.634Z,12.80
2022-12-03T01:11:00.611Z,13.10
2022-12-03T01:12:00.592Z,12.50
2022-12-03T01:13:00.570Z,12.60
2022-12-03T01:14:00.581Z,12.70
2022-12-03T01:15:00.536Z,13.10
2022-12-03T01:16:00.559Z,12.10
2022-12-03T01:17:00.490Z,13.00
2022-12-03T01:18:00.475Z,12.20
2022-12-03T01:19:00.476Z,12.60
2022-12-03T01:20:00.436Z,12.90
2022-12-03T01:21:00.413Z,13.00
2022-12-03T01:22:00.391Z,12.80
2022-12-03T01:23:00.372Z,12.80
2022-12-03T01:24:00.392Z,13.10
2022-12-03T01:25:00.332Z,12.90
2022-12-03T01:26:00.313Z,12.50
2022-12-03T01:27:00.290Z,12.70
2022-12-03T01:28:00.270Z,12.60
2022-12-03T01:29:00.275Z,13.30
2022-12-03T01:30:00.226Z,12.60
2022-12-03T01:31:00.231Z,13.30
2022-12-03T01:32:00.187Z,12.60
2022-12-03T01:33:00.170Z,12.40
2022-12-03T01:34:00.172Z,12.40
2022-12-03T01:35:00.130Z,11.80
2022-12-03T01:36:00.109Z,12.50
2022-12-03T01:37:00.088Z,12.60
2022-12-03T01:38:00.099Z,13.10
2022-12-03T01:39:00.082Z,11.90
2022-12-03T01:40:00.030Z,12.20
2022-12-03T01:41:00.031Z,12.20
2022-12-03T01:41:59.987Z,12.90
2022-12-03T01:42:59.968Z,11.70
2022-12-03T01:44:00.027Z,11.30
2022-12-03T01:44:59.930Z,11.90
2022-12-03T01:45:59.909Z,12.70
2022-12-03T01:46:59.978Z,11.60
2022-12-03T01:47:59.867Z,12.40
2022-12-03T01:48:59.934Z,12.10
2022-12-03T01:49:59.824Z,11.90
2022-12-03T01:50:59.799Z,11.80
2022-12-03T01:51:59.782Z,12.30
2022-12-03T01:52:59.761Z,12.40
2022-12-03T01:53:59.773Z,11.90
2022-12-03T01:54:59.719Z,12.60
2022-12-03T01:55:59.704Z,12.70
2022-12-03T01:56:59.682Z,12.50
2022-12-03T01:57:59.661Z,12.30
2022-12-03T01:58:59.669Z,12.30
2022-12-03T01:59:59.621Z,12.20
2022-12-03T02:00:59.598Z,12.40
2022-12-03T02:01:59.679Z,12.20
2022-12-03T02:02:59.560Z,12.40
2022-12-03T02:03:59.633Z,11.80
2022-12-03T02:04:59.533Z,12.00
2022-12-03T02:05:59.499Z,11.50
2022-12-03T02:06:59.481Z,11.20
2022-12-03T02:07:59.643Z,11.70
2022-12-03T02:08:59.469Z,11.30
2022-12-03T02:09:59.412Z,10.70
2022-12-03T02:10:59.398Z,10.90
2022-12-03T02:11:59.377Z,10.70
2022-12-03T02:12:59.360Z,10.30
2022-12-03T02:13:59.366Z,11.10
2022-12-03T02:14:59.317Z,10.50
2022-12-03T02:15:59.358Z,11.30
2022-12-03T02:16:59.276Z,10.80
2022-12-03T02:17:59.259Z,10.00
2022-12-03T02:18:59.269Z,10.30
2022-12-03T02:19:59.221Z,10.10
2022-12-03T02:20:59.200Z,9.90
2022-12-03T02:21:59.175Z,10.10
2022-12-03T02:22:59.157Z,9.30
2022-12-03T02:23:59.167Z,10.10
2022-12-03T02:24:59.129Z,10.20
2022-12-03T02:25:59.104Z,9.20
2022-12-03T02:26:59.092Z,9.90
2022-12-03T02:27:59.059Z,10.00
2022-12-03T02:28:59.065Z,9.40
2022-12-03T02:29:59.020Z,9.30
2022-12-03T02:30:59.066Z,9.40
2022-12-03T02:31:59.069Z,10.20
2022-12-03T02:32:58.963Z,9.90
2022-12-03T02:33:58.967Z,10.10
2022-12-03T02:34:58.917Z,10.50
2022-12-03T02:36:03.312Z,10.40
2022-12-03T02:37:00.872Z,10.40
2022-12-03T02:37:58.861Z,10.80
2022-12-03T02:38:58.872Z,11.30
2022-12-03T02:39:58.816Z,11.10
2022-12-03T02:40:58.821Z,11.40
2022-12-03T02:41:58.784Z,11.70
2022-12-03T02:42:58.757Z,11.00
2022-12-03T02:43:58.763Z,11.40
2022-12-03T02:45:04.670Z,12.20
2022-12-03T02:46:00.699Z,11.70
2022-12-03T02:46:58.749Z,12.20
2022-12-03T02:47:58.660Z,11.90
2022-12-03T02:48:58.661Z,11.20
2022-12-03T02:49:58.616Z,12.30
2022-12-03T02:50:58.594Z,10.90
2022-12-03T02:51:58.577Z,11.70
2022-12-03T02:52:58.559Z,11.80
2022-12-03T02:53:58.567Z,11.70
2022-12-03T02:54:58.513Z,11.20
2022-12-03T02:55:58.494Z,11.10
2022-12-03T02:56:58.469Z,12.40
2022-12-03T02:57:58.449Z,11.90
2022-12-03T02:58:58.459Z,11.10
2022-12-03T02:59:58.401Z,12.40
2022-12-03T03:00:59.487Z,12.70
2022-12-03T03:01:58.491Z,12.30
2022-12-03T03:02:58.349Z,12.00
2022-12-03T03:03:58.357Z,12.00
2022-12-03T03:04:58.310Z,11.50
2022-12-03T03:05:58.283Z,11.50
2022-12-03T03:06:58.265Z,12.20
2022-12-03T03:07:58.404Z,11.90
2022-12-03T03:08:58.253Z,12.00
2022-12-03T03:09:58.208Z,12.40
2022-12-03T03:10:58.183Z,12.00
2022-12-03T03:11:58.190Z,11.70
2022-12-03T03:12:58.144Z,11.80
2022-12-03T03:13:58.125Z,11.80
2022-12-03T03:14:58.104Z,11.80
2022-12-03T03:15:58.136Z,11.70
2022-12-03T03:16:58.122Z,12.20
2022-12-03T03:17:58.044Z,12.10
2022-12-03T03:18:58.048Z,12.50
2022-12-03T03:19:58.003Z,12.00
2022-12-03T03:20:57.982Z,12.90
2022-12-03T03:21:57.966Z,11.30
2022-12-03T03:22:57.943Z,12.80
2022-12-03T03:23:57.953Z,11.80
2022-12-03T03:24:57.900Z,12.80
2022-12-03T03:25:57.883Z,12.20
2022-12-03T03:26:57.862Z,12.30
2022-12-03T03:27:57.839Z,12.00
2022-12-03T03:28:57.845Z,12.10
2022-12-03T03:29:57.797Z,12.30
2022-12-03T03:30:57.776Z,12.80
2022-12-03T03:31:57.833Z,12.70
2022-12-03T03:32:57.742Z,12.50
2022-12-03T03:33:57.742Z,12.20
2022-12-03T03:34:57.693Z,13.10
2022-12-03T03:35:57.668Z,12.80
2022-12-03T03:36:57.650Z,12.80
2022-12-03T03:37:57.637Z,13.30
2022-12-03T03:38:57.631Z,13.40
2022-12-03T03:39:57.589Z,13.00
2022-12-03T03:40:57.572Z,13.20
2022-12-03T03:41:57.553Z,12.90
2022-12-03T03:42:57.530Z,13.70
2022-12-03T03:43:57.536Z,13.20
2022-12-03T03:44:57.492Z,13.70
2022-12-03T03:45:57.568Z,13.20
2022-12-03T03:46:57.450Z,13.80
2022-12-03T03:47:57.437Z,13.30
2022-12-03T03:48:57.438Z,13.90
2022-12-03T03:49:57.391Z,13.30
2022-12-03T03:50:57.370Z,13.00
2022-12-03T03:51:57.376Z,14.00
2022-12-03T03:52:57.330Z,14.10
2022-12-03T03:53:57.347Z,14.30
2022-12-03T03:54:57.288Z,14.20
2022-12-03T03:55:57.265Z,13.80
2022-12-03T03:56:58.246Z,14.40
2022-12-03T03:57:57.228Z,13.90
2022-12-03T03:58:57.234Z,14.30
2022-12-03T03:59:57.187Z,13.90
2022-12-03T04:00:57.218Z,14.20
2022-12-03T04:01:57.150Z,15.50
2022-12-03T04:02:57.134Z,15.40
2022-12-03T04:03:57.215Z,14.80
2022-12-03T04:04:57.092Z,14.80
2022-12-03T04:05:57.073Z,14.90
2022-12-03T04:06:57.055Z,15.20
2022-12-03T04:07:57.154Z,15.10
2022-12-03T04:08:57.045Z,15.40
2022-12-03T04:09:56.991Z,15.20
2022-12-03T04:10:56.977Z,15.40
2022-12-03T04:11:56.961Z,15.40
2022-12-03T04:12:56.938Z,15.00
2022-12-03T04:13:56.923Z,15.40
2022-12-03T04:14:56.925Z,15.20
2022-12-03T04:15:56.879Z,15.30
2022-12-03T04:16:56.934Z,15.70
2022-12-03T04:17:56.838Z,16.60
2022-12-03T04:18:56.839Z,15.90
2022-12-03T04:19:56.828Z,16.50
2022-12-03T04:20:56.782Z,16.70
2022-12-03T04:21:56.769Z,16.90
2022-12-03T04:22:56.742Z,15.80
2022-12-03T04:23:56.724Z,16.10
2022-12-03T04:24:56.737Z,15.60
2022-12-03T04:25:56.682Z,15.60
2022-12-03T04:26:56.662Z,17.10
2022-12-03T04:27:56.646Z,16.00
2022-12-03T04:28:56.622Z,16.50
2022-12-03T04:29:56.632Z,16.80
2022-12-03T04:30:56.633Z,17.00
2022-12-03T04:31:56.563Z,17.10
2022-12-03T04:32:56.587Z,16.90
2022-12-03T04:33:56.520Z,16.70
2022-12-03T04:34:56.894Z,16.60
2022-12-03T04:35:56.517Z,15.60
2022-12-03T04:36:56.461Z,16.00
2022-12-03T04:37:56.463Z,16.20
2022-12-03T04:38:56.419Z,17.30
2022-12-03T04:39:56.425Z,16.30
2022-12-03T04:40:56.377Z,16.80
2022-12-03T04:41:56.356Z,16.40
2022-12-03T04:42:56.335Z,16.60
2022-12-03T04:43:56.318Z,17.00
2022-12-03T04:44:56.542Z,17.40
2022-12-03T04:45:56.331Z,16.30
2022-12-03T04:46:56.265Z,16.90
2022-12-03T04:47:56.241Z,16.30
2022-12-03T04:48:56.222Z,17.00
2022-12-03T04:49:56.230Z,16.40
2022-12-03T04:50:56.177Z,16.90
2022-12-03T04:51:56.153Z,17.80
2022-12-03T04:52:56.165Z,17.80
2022-12-03T04:53:56.119Z,17.40
2022-12-03T04:54:56.510Z,16.90
2022-12-03T04:55:56.076Z,16.90
2022-12-03T04:56:56.058Z,17.00
2022-12-03T04:57:56.034Z,17.30
2022-12-03T04:58:56.020Z,17.00
2022-12-03T04:59:56.028Z,17.00
2022-12-03T05:00:56.019Z,17.70
2022-12-03T05:01:56.026Z,17.00
2022-12-03T05:02:55.989Z,17.20
2022-12-03T05:03:55.925Z,17.80
2022-12-03T05:04:56.228Z,17.50
2022-12-03T05:05:55.870Z,17.50
2022-12-03T05:06:55.849Z,17.40
2022-12-03T05:07:55.878Z,16.90
2022-12-03T05:08:55.816Z,17.70
2022-12-03T05:09:55.817Z,17.10
2022-12-03T05:10:55.770Z,17.10
2022-12-03T05:11:55.751Z,16.80
2022-12-03T05:12:55.731Z,17.30
2022-12-03T05:13:55.736Z,17.60
2022-12-03T05:14:56.134Z,16.60
2022-12-03T05:15:55.675Z,17.10
2022-12-03T05:16:55.705Z,17.70
2022-12-03T05:17:55.637Z,16.60
2022-12-03T05:18:55.613Z,16.00
2022-12-03T05:19:55.624Z,16.50
2022-12-03T05:20:55.571Z,16.00
2022-12-03T05:21:55.548Z,17.10
2022-12-03T05:22:55.533Z,17.30
2022-12-03T05:23:55.512Z,16.50
2022-12-03T05:24:55.897Z,16.40
2022-12-03T05:25:55.469Z,16.20
2022-12-03T05:26:55.451Z,16.20
2022-12-03T05:27:55.427Z,16.60
2022-12-03T05:28:55.403Z,17.20
2022-12-03T05:29:55.415Z,16.70
2022-12-03T05:30:55.389Z,16.00
2022-12-03T05:31:56.344Z,16.60
2022-12-03T05:32:55.321Z,16.10
2022-12-03T05:33:55.326Z,17.20
2022-12-03T05:34:55.646Z,16.30
2022-12-03T05:35:55.259Z,16.00
2022-12-03T05:36:55.242Z,15.70
2022-12-03T05:37:55.223Z,15.70
2022-12-03T05:38:55.198Z,16.10
2022-12-03T05:39:55.205Z,15.80
2022-12-03T05:40:55.158Z,16.00
2022-12-03T05:41:55.138Z,15.80
2022-12-03T05:42:55.116Z,16.20
2022-12-03T05:43:55.096Z,16.30
2022-12-03T05:44:55.457Z,16.50
2022-12-03T05:45:55.125Z,16.60
2022-12-03T05:46:55.028Z,16.40
2022-12-03T05:47:55.013Z,16.30
2022-12-03T05:48:54.991Z,16.50
2022-12-03T05:49:54.992Z,16.70
2022-12-03T05:50:54.952Z,16.70
2022-12-03T05:51:58.484Z,16.40
2022-12-03T05:52:55.912Z,16.40
2022-12-03T05:53:54.911Z,15.80
2022-12-03T05:54:55.139Z,16.60
2022-12-03T05:55:54.843Z,16.70
2022-12-03T05:56:54.822Z,16.00
2022-12-03T05:57:54.799Z,15.90
2022-12-03T05:58:54.774Z,16.30
2022-12-03T05:59:54.783Z,16.20
2022-12-03T06:00:54.748Z,15.90
2022-12-03T06:01:54.713Z,15.50
2022-12-03T06:02:54.791Z,15.90
2022-12-03T06:03:54.757Z,15.90
2022-12-03T06:04:54.910Z,15.90
2022-12-03T06:05:54.629Z,15.80
2022-12-03T06:06:54.612Z,15.60
2022-12-03T06:07:54.626Z,15.70
2022-12-03T06:08:54.570Z,15.00
2022-12-03T06:09:54.587Z,15.50
2022-12-03T06:10:54.528Z,14.80
2022-12-03T06:11:54.506Z,14.10
2022-12-03T06:12:54.493Z,15.60
2022-12-03T06:13:54.498Z,15.50
2022-12-03T06:14:54.685Z,15.40
2022-12-03T06:15:54.483Z,15.20
2022-12-03T06:16:54.418Z,15.40
2022-12-03T06:17:54.392Z,15.90
2022-12-03T06:18:54.379Z,14.10
2022-12-03T06:19:54.349Z,14.60
2022-12-03T06:20:54.510Z,15.20
2022-12-03T06:21:54.321Z,15.10
2022-12-03T06:22:54.289Z,15.30
2022-12-03T06:23:54.271Z,14.60
2022-12-03T06:24:54.487Z,14.60
2022-12-03T06:25:54.256Z,15.00
2022-12-03T06:26:54.210Z,15.30
2022-12-03T06:27:54.188Z,14.30
2022-12-03T06:28:54.163Z,15.20
2022-12-03T06:29:54.146Z,14.70
2022-12-03T06:30:54.204Z,15.10
2022-12-03T06:31:54.109Z,15.10
2022-12-03T06:32:54.088Z,14.80
2022-12-03T06:33:54.066Z,14.80
2022-12-03T06:34:54.288Z,15.30
2022-12-03T06:35:54.050Z,14.80
2022-12-03T06:36:54.002Z,14.80
2022-12-03T06:37:53.981Z,14.30
2022-12-03T06:38:53.963Z,14.90
2022-12-03T06:39:53.933Z,13.90
2022-12-03T06:40:53.940Z,15.40
2022-12-03T06:41:53.895Z,13.40
2022-12-03T06:42:53.888Z,14.10
2022-12-03T06:43:53.852Z,13.70
2022-12-03T06:44:54.137Z,14.40
2022-12-03T06:45:53.848Z,14.30
2022-12-03T06:46:53.835Z,14.20
2022-12-03T06:47:53.773Z,13.60
2022-12-03T06:48:53.757Z,14.50
2022-12-03T06:49:53.745Z,14.10
2022-12-03T06:50:53.738Z,14.00
2022-12-03T06:51:53.696Z,14.10
2022-12-03T06:52:53.674Z,14.00
2022-12-03T06:53:53.658Z,14.00
2022-12-03T06:54:53.944Z,13.60
2022-12-03T06:55:53.635Z,14.00
2022-12-03T06:56:53.594Z,14.10
2022-12-03T06:57:53.575Z,13.60
2022-12-03T06:58:53.551Z,13.00
2022-12-03T06:59:53.805Z,13.80
2022-12-03T07:00:53.536Z,13.80
2022-12-03T07:01:53.579Z,14.00
2022-12-03T07:02:53.574Z,13.50
2022-12-03T07:03:53.449Z,13.60
2022-12-03T07:04:54.776Z,14.00
2022-12-03T07:05:53.436Z,14.00
2022-12-03T07:06:53.390Z,14.20
2022-12-03T07:07:53.431Z,14.00
2022-12-03T07:08:53.347Z,14.30
2022-12-03T07:09:53.329Z,14.30
2022-12-03T07:10:53.335Z,14.60
2022-12-03T07:11:53.281Z,14.00
2022-12-03T07:12:53.268Z,14.80
2022-12-03T07:13:53.243Z,13.00
2022-12-03T07:14:53.710Z,14.50
2022-12-03T07:15:53.267Z,14.10
2022-12-03T07:16:53.179Z,15.10
2022-12-03T07:17:53.160Z,13.90
2022-12-03T07:18:53.142Z,14.10
2022-12-03T07:19:53.125Z,14.40
2022-12-03T07:20:53.125Z,14.50
2022-12-03T07:21:53.074Z,15.00
2022-12-03T07:22:53.057Z,14.40
2022-12-03T07:23:53.869Z,14.80
2022-12-03T07:24:53.371Z,14.40
2022-12-03T07:25:53.015Z,14.60
2022-12-03T07:26:52.980Z,14.60
2022-12-03T07:27:52.955Z,15.30
2022-12-03T07:28:52.929Z,14.00
2022-12-03T07:29:52.912Z,14.80
2022-12-03T07:30:52.971Z,14.10
2022-12-03T07:31:52.968Z,13.70
2022-12-03T07:32:52.884Z,14.10
2022-12-03T07:33:52.849Z,14.20
2022-12-03T07:34:53.151Z,14.90
2022-12-03T07:35:52.805Z,14.60
2022-12-03T07:36:52.754Z,14.70
2022-12-03T07:37:52.735Z,15.20
2022-12-03T07:38:52.720Z,14.60
2022-12-03T07:39:52.695Z,14.50
2022-12-03T07:40:52.705Z,13.90
2022-12-03T07:41:52.650Z,14.60
2022-12-03T07:42:52.635Z,14.60
2022-12-03T07:43:52.609Z,15.50
2022-12-03T07:44:52.913Z,14.60
2022-12-03T07:45:52.591Z,14.50
2022-12-03T07:46:52.571Z,15.40
2022-12-03T07:47:52.532Z,15.00
2022-12-03T07:48:52.504Z,15.00
2022-12-03T07:49:53.480Z,14.90
2022-12-03T07:50:52.493Z,15.60
2022-12-03T07:51:52.444Z,15.40
2022-12-03T07:52:52.422Z,15.30
2022-12-03T07:53:52.401Z,15.60
2022-12-03T07:54:52.758Z,14.80
2022-12-03T07:55:52.403Z,15.50
2022-12-03T07:56:55.530Z,14.80
2022-12-03T07:57:53.316Z,14.60
2022-12-03T07:58:52.309Z,14.80
2022-12-03T07:59:52.296Z,14.40
2022-12-03T08:00:52.311Z,15.50
2022-12-03T08:01:52.299Z,15.90
2022-12-03T08:02:52.253Z,14.90
2022-12-03T08:03:52.198Z,15.50
2022-12-03T08:04:52.686Z,15.10
2022-12-03T08:05:52.187Z,16.00
2022-12-03T08:06:52.133Z,15.10
2022-12-03T08:07:52.174Z,15.00
2022-12-03T08:08:52.098Z,15.80
2022-12-03T08:09:52.975Z,16.20
2022-12-03T08:10:52.079Z,14.90
2022-12-03T08:11:52.030Z,16.10
2022-12-03T08:12:52.013Z,15.80
2022-12-03T08:13:51.992Z,15.80
2022-12-03T08:14:52.444Z,15.90
2022-12-03T08:15:51.952Z,15.30
2022-12-03T08:16:51.963Z,16.00
2022-12-03T08:17:51.912Z,15.80
2022-12-03T08:18:51.888Z,15.50
2022-12-03T08:19:51.895Z,15.70
2022-12-03T08:20:51.878Z,16.90
2022-12-03T08:21:56.489Z,15.60
2022-12-03T08:22:52.809Z,15.80
2022-12-03T08:23:51.787Z,16.00
2022-12-03T08:24:52.055Z,15.40
2022-12-03T08:25:51.764Z,15.90
2022-12-03T08:26:51.724Z,15.70
2022-12-03T08:27:51.702Z,15.70
2022-12-03T08:28:51.677Z,15.70
2022-12-03T08:29:51.649Z,15.40
2022-12-03T08:30:51.662Z,15.80
2022-12-03T08:31:51.670Z,16.00
2022-12-03T08:32:51.591Z,15.40
2022-12-03T08:33:51.571Z,14.70
2022-12-03T08:34:51.775Z,15.90
2022-12-03T08:35:51.534Z,15.70
2022-12-03T08:36:52.355Z,16.40
2022-12-03T08:37:51.488Z,16.80
2022-12-03T08:38:51.465Z,15.40
2022-12-03T08:39:51.471Z,16.20
2022-12-03T08:40:51.450Z,15.80
2022-12-03T08:41:51.405Z,15.60
2022-12-03T08:42:51.382Z,15.60
2022-12-03T08:43:51.364Z,16.10
2022-12-03T08:44:51.608Z,16.50
2022-12-03T08:45:51.391Z,16.80
2022-12-03T08:46:51.303Z,16.20
2022-12-03T08:47:51.282Z,15.70
2022-12-03T08:48:51.263Z,16.20
2022-12-03T08:49:51.270Z,16.80
2022-12-03T08:50:51.261Z,16.60
2022-12-03T08:51:51.215Z,16.40
2022-12-03T08:52:51.188Z,16.60
2022-12-03T08:53:52.565Z,16.40
2022-12-03T08:54:51.384Z,16.20
2022-12-03T08:55:51.147Z,16.50
2022-12-03T08:56:51.101Z,16.50
2022-12-03T08:57:51.080Z,17.50
2022-12-03T08:58:51.067Z,15.70
2022-12-03T08:59:51.041Z,16.00
2022-12-03T09:00:51.075Z,15.90
2022-12-03T09:01:51.083Z,16.40
2022-12-03T09:02:50.975Z,17.00
2022-12-03T09:03:51.055Z,17.00
2022-12-03T09:04:51.095Z,17.00
2022-12-03T09:05:50.952Z,16.90
2022-12-03T09:06:50.896Z,17.20
2022-12-03T09:07:50.909Z,17.00
2022-12-03T09:08:50.854Z,16.80
2022-12-03T09:09:50.855Z,16.20
2022-12-03T09:10:50.839Z,16.30
2022-12-03T09:11:50.905Z,16.50
2022-12-03T09:12:50.778Z,16.90
2022-12-03T09:13:50.758Z,16.40
2022-12-03T09:14:50.885Z,16.30
2022-12-03T09:15:50.742Z,16.60
2022-12-03T09:16:50.765Z,16.40
2022-12-03T09:17:50.682Z,17.00
2022-12-03T09:18:50.660Z,16.70
2022-12-03T09:19:50.675Z,17.30
2022-12-03T09:20:50.645Z,16.50
2022-12-03T09:21:50.623Z,16.80
2022-12-03T09:22:50.577Z,16.30
2022-12-03T09:23:50.555Z,16.10
2022-12-03T09:24:50.667Z,16.00
2022-12-03T09:25:50.546Z,17.00
2022-12-03T09:26:50.501Z,16.50
2022-12-03T09:27:50.485Z,17.00
2022-12-03T09:28:50.454Z,16.80
2022-12-03T09:29:50.443Z,17.50
2022-12-03T09:30:50.441Z,17.30
2022-12-03T09:31:50.497Z,16.50
2022-12-03T09:32:50.373Z,17.30
2022-12-03T09:33:50.374Z,16.90
2022-12-03T09:34:50.325Z,16.90
2022-12-03T09:35:50.332Z,16.90
2022-12-03T09:36:50.290Z,16.60
2022-12-03T09:37:50.271Z,16.20
2022-12-03T09:38:50.246Z,16.30
2022-12-03T09:39:50.842Z,17.40
2022-12-03T09:40:50.252Z,16.50
2022-12-03T09:41:50.229Z,17.20
2022-12-03T09:42:50.165Z,17.30
2022-12-03T09:44:03.736Z,16.10
2022-12-03T09:44:52.385Z,17.00
2022-12-03T09:45:50.190Z,16.80
2022-12-03T09:46:50.088Z,16.50
2022-12-03T09:47:50.079Z,17.00
2022-12-03T09:48:50.047Z,17.10
2022-12-03T09:49:50.044Z,16.40
2022-12-03T09:50:50.029Z,16.60
2022-12-03T09:51:50.011Z,17.10
2022-12-03T09:52:49.964Z,16.50
2022-12-03T09:53:49.953Z,16.70
2022-12-03T09:54:49.933Z,17.10
2022-12-03T09:55:49.914Z,17.20
2022-12-03T09:56:49.916Z,16.70
2022-12-03T09:57:49.867Z,16.30
2022-12-03T09:58:49.850Z,17.40
2022-12-03T09:59:49.827Z,16.20
2022-12-03T10:00:49.806Z,16.40
2022-12-03T10:01:49.979Z,16.60
2022-12-03T10:02:49.775Z,16.50
2022-12-03T10:03:49.747Z,17.20
2022-12-03T10:04:49.876Z,16.90
2022-12-03T10:05:49.719Z,17.20
2022-12-03T10:06:49.717Z,17.10
2022-12-03T10:07:49.708Z,17.60
2022-12-03T10:08:49.647Z,17.40
2022-12-03T10:09:49.630Z,16.80
2022-12-03T10:10:49.616Z,17.70
2022-12-03T10:11:49.614Z,16.70
2022-12-03T10:12:49.573Z,17.50
2022-12-03T10:13:49.563Z,17.30
2022-12-03T10:14:49.538Z,17.20
2022-12-03T10:15:49.513Z,16.40
2022-12-03T10:16:49.568Z,16.90
2022-12-03T10:17:49.476Z,17.70
2022-12-03T10:18:49.452Z,16.30
2022-12-03T10:19:49.433Z,16.30
2022-12-03T10:20:49.433Z,17.00
2022-12-03T10:21:49.419Z,17.10
2022-12-03T10:22:49.388Z,17.50
2022-12-03T10:23:54.919Z,16.50
2022-12-03T10:24:51.800Z,17.60
2022-12-03T10:25:49.315Z,17.30
2022-12-03T10:26:49.322Z,17.30
2022-12-03T10:27:49.269Z,17.00
2022-12-03T10:28:49.252Z,17.30
2022-12-03T10:29:49.232Z,16.70
2022-12-03T10:30:49.289Z,16.90
2022-12-03T10:31:49.827Z,17.10
2022-12-03T10:32:49.177Z,17.50
2022-12-03T10:33:49.155Z,16.70
2022-12-03T10:34:49.132Z,16.30
2022-12-03T10:35:49.512Z,16.30
2022-12-03T10:36:49.136Z,17.10
2022-12-03T10:37:49.081Z,16.70
2022-12-03T10:38:49.061Z,16.00
2022-12-03T10:39:54.190Z,16.70
2022-12-03T10:40:51.014Z,16.50
2022-12-03T10:41:49.077Z,16.80
2022-12-03T10:42:48.978Z,16.70
2022-12-03T10:43:48.954Z,16.30
2022-12-03T10:44:48.934Z,16.00
2022-12-03T10:45:49.019Z,17.40
2022-12-03T10:46:48.998Z,16.50
2022-12-03T10:47:48.931Z,16.80
2022-12-03T10:48:48.859Z,16.70
2022-12-03T10:49:48.831Z,17.20
2022-12-03T10:50:48.817Z,17.10
2022-12-03T10:51:48.824Z,16.50
2022-12-03T10:52:48.778Z,17.10
2022-12-03T10:53:48.762Z,17.10
2022-12-03T10:54:48.739Z,16.70
2022-12-03T10:55:48.706Z,16.30
2022-12-03T10:56:49.720Z,17.10
2022-12-03T10:57:48.707Z,16.10
2022-12-03T10:58:48.660Z,16.50
2022-12-03T10:59:48.635Z,16.30
2022-12-03T11:00:48.618Z,16.80
2022-12-03T11:01:48.664Z,16.50
2022-12-03T11:02:54.888Z,17.30
2022-12-03T11:03:50.642Z,16.80
2022-12-03T11:04:48.534Z,15.40
2022-12-03T11:05:48.517Z,15.60
2022-12-03T11:06:48.526Z,16.30
2022-12-03T11:07:48.505Z,15.90
2022-12-03T11:08:54.683Z,17.20
2022-12-03T11:09:50.435Z,16.00
2022-12-03T11:10:48.419Z,16.60
2022-12-03T11:11:48.426Z,17.00
2022-12-03T11:12:48.391Z,16.70
2022-12-03T11:13:48.363Z,16.00
2022-12-03T11:14:48.345Z,17.00
2022-12-03T11:15:48.361Z,16.20
2022-12-03T11:16:48.322Z,16.40
2022-12-03T11:17:48.292Z,17.40
2022-12-03T11:18:48.263Z,17.20
2022-12-03T11:19:48.269Z,16.80
2022-12-03T11:20:48.232Z,17.20
2022-12-03T11:21:48.231Z,17.00
2022-12-03T11:22:48.213Z,17.00
2022-12-03T11:23:48.177Z,17.60
2022-12-03T11:24:48.145Z,16.90
2022-12-03T11:25:48.120Z,16.80
2022-12-03T11:26:48.135Z,17.40
2022-12-03T11:27:48.102Z,16.80
2022-12-03T11:28:48.068Z,16.30
2022-12-03T11:29:48.045Z,16.90
2022-12-03T11:30:48.092Z,16.90
2022-12-03T11:31:48.137Z,16.20
2022-12-03T11:32:47.980Z,16.70
2022-12-03T11:33:47.970Z,15.80
2022-12-03T11:34:47.964Z,16.70
2022-12-03T11:35:47.935Z,16.60
2022-12-03T11:37:01.060Z,17.30
2022-12-03T11:37:49.892Z,15.40
2022-12-03T11:38:52.900Z,16.30
2022-12-03T11:39:49.870Z,17.10
2022-12-03T11:40:47.824Z,17.00
2022-12-03T11:41:47.836Z,17.20
2022-12-03T11:42:47.810Z,16.90
2022-12-03T11:43:47.764Z,17.00
2022-12-03T11:44:47.752Z,17.30
2022-12-03T11:45:47.735Z,17.60
2022-12-03T11:46:47.792Z,16.90
2022-12-03T11:47:47.698Z,16.60
2022-12-03T11:48:47.667Z,16.50
2022-12-03T11:49:47.639Z,16.80
2022-12-03T11:50:47.625Z,16.90
2022-12-03T11:51:47.631Z,17.10
2022-12-03T11:52:47.584Z,17.60
2022-12-03T11:53:47.567Z,16.50
2022-12-03T11:54:47.562Z,17.50
2022-12-03T11:55:47.516Z,16.30
2022-12-03T11:56:47.534Z,17.50
2022-12-03T11:57:47.520Z,17.90
2022-12-03T11:58:47.463Z,17.00
2022-12-03T11:59:47.446Z,16.20
2022-12-03T12:00:47.417Z,17.10
2022-12-03T12:01:48.469Z,17.50
2022-12-03T12:02:47.460Z,17.80
2022-12-03T12:03:47.565Z,17.50
2022-12-03T12:04:47.376Z,16.60
2022-12-03T12:05:47.319Z,17.80
2022-12-03T12:06:51.740Z,18.10
2022-12-03T12:07:49.323Z,16.90
2022-12-03T12:08:47.260Z,17.00
2022-12-03T12:09:47.247Z,17.10
2022-12-03T12:10:47.224Z,17.60
2022-12-03T12:11:47.233Z,18.30
2022-12-03T12:12:54.315Z,17.70
2022-12-03T12:13:49.159Z,17.50
2022-12-03T12:14:47.174Z,18.10
2022-12-03T12:15:47.149Z,17.50
2022-12-03T12:16:48.182Z,17.30
2022-12-03T12:17:47.083Z,17.00
2022-12-03T12:18:49.932Z,17.90
2022-12-03T12:19:54.035Z,16.90
2022-12-03T12:20:49.026Z,17.70
2022-12-03T12:21:46.999Z,17.60
2022-12-03T12:22:47.004Z,18.50
2022-12-03T12:23:46.960Z,18.60
2022-12-03T12:24:47.026Z,17.60
2022-12-03T12:25:52.410Z,16.10
2022-12-03T12:26:48.928Z,17.90
2022-12-03T12:27:46.904Z,17.80
2022-12-03T12:28:46.866Z,18.30
2022-12-03T12:29:46.840Z,17.70
2022-12-03T12:30:46.821Z,17.80
2022-12-03T12:31:52.241Z,17.60
2022-12-03T12:32:48.810Z,17.60
2022-12-03T12:33:46.767Z,18.20
2022-12-03T12:34:46.749Z,18.40
2022-12-03T12:35:46.728Z,17.90
2022-12-03T12:36:46.714Z,17.90
2022-12-03T12:37:48.182Z,17.20
2022-12-03T12:38:47.674Z,17.60
2022-12-03T12:39:46.648Z,18.20
2022-12-03T12:40:46.632Z,18.00
2022-12-03T12:41:46.606Z,17.30
2022-12-03T12:42:46.611Z,16.60
2022-12-03T12:43:46.571Z,17.70
2022-12-03T12:44:46.556Z,17.90
2022-12-03T12:45:46.531Z,18.10
2022-12-03T12:46:48.029Z,18.00
2022-12-03T12:47:47.610Z,17.00
2022-12-03T12:48:46.473Z,17.80
2022-12-03T12:49:51.583Z,18.80
2022-12-03T12:50:48.439Z,18.50
2022-12-03T12:51:46.424Z,18.40